createdAt,value
2022-08-18T00:01:50.864Z,5.97
2022-08-18T00:04:45.306Z,5.20
2022-08-18T00:07:38.734Z,5.88
2022-08-18T00:10:30.723Z,5.72
2022-08-18T00:13:19.575Z,5.80
2022-08-18T00:16:08.835Z,6.20
2022-08-18T00:18:58.358Z,6.03
2022-08-18T00:21:47.418Z,5.95
2022-08-18T00:24:38.795Z,6.43
2022-08-18T00:27:40.101Z,5.82
2022-08-18T00:30:28.854Z,6.28
2022-08-18T00:33:17.864Z,5.45
2022-08-18T00:36:07.225Z,6.07
2022-08-18T00:38:56.957Z,6.35
2022-08-18T00:41:45.919Z,6.28
2022-08-18T00:44:36.485Z,5.78
2022-08-18T00:47:41.301Z,5.53
2022-08-18T00:50:36.435Z,6.53
2022-08-18T00:53:29.518Z,6.68
2022-08-18T00:56:25.080Z,6.15
2022-08-18T00:59:19.081Z,6.90
2022-08-18T01:02:20.681Z,6.78
2022-08-18T01:05:15.746Z,6.25
2022-08-18T01:08:05.389Z,6.40
2022-08-18T01:10:56.117Z,7.07
2022-08-18T01:13:45.718Z,6.28
2022-08-18T01:16:56.880Z,7.68
2022-08-18T01:20:05.691Z,6.88
2022-08-18T01:23:04.882Z,7.30
2022-08-18T01:26:04.208Z,7.82
2022-08-18T01:28:54.450Z,7.45
2022-08-18T01:31:53.285Z,6.95
2022-08-18T01:34:48.361Z,8.43
2022-08-18T01:37:38.079Z,6.65
2022-08-18T01:41:17.422Z,5.30
2022-08-18T01:43:38.419Z,5.38
2022-08-18T01:46:28.363Z,4.53
2022-08-18T01:49:18.694Z,3.40
2022-08-18T01:52:08.489Z,2.90
2022-08-18T01:54:59.570Z,2.17
2022-08-18T01:57:50.385Z,1.80
2022-08-18T02:00:40.296Z,1.60
2022-08-18T02:03:32.664Z,1.73
2022-08-18T02:06:32.050Z,1.58
2022-08-18T02:09:23.886Z,2.78
2022-08-18T02:12:14.335Z,2.97
2022-08-18T02:15:05.736Z,3.78
2022-08-18T02:17:54.533Z,2.88
2022-08-18T02:20:44.829Z,2.97
2022-08-18T02:23:33.996Z,2.17
2022-08-18T02:26:23.328Z,2.30
2022-08-18T02:29:12.778Z,2.20
2022-08-18T02:32:03.608Z,2.08
2022-08-18T02:34:53.094Z,2.65
2022-08-18T02:37:45.670Z,2.22
2022-08-18T02:40:35.990Z,2.50
2022-08-18T02:43:25.631Z,2.42
2022-08-18T02:46:14.575Z,2.20
2022-08-18T02:49:06.151Z,1.95
2022-08-18T02:51:55.702Z,2.33
2022-08-18T02:54:45.192Z,2.22
2022-08-18T02:57:34.381Z,2.15
2022-08-18T03:00:23.627Z,2.30
2022-08-18T03:03:13.669Z,3.47
2022-08-18T03:06:03.855Z,2.55
2022-08-18T03:08:54.084Z,2.40
2022-08-18T06:39:47.890Z,3.22
2022-08-18T06:42:40.423Z,3.95
2022-08-18T06:45:35.882Z,3.92
2022-08-18T06:48:33.155Z,4.03
2022-08-18T06:51:24.734Z,3.03
2022-08-18T06:54:29.597Z,3.00
2022-08-18T06:57:30.428Z,3.00
2022-08-18T07:00:28.128Z,3.03
2022-08-18T07:03:22.457Z,3.28
2022-08-18T07:06:12.556Z,3.70
2022-08-18T07:09:21.863Z,3.00
2022-08-18T07:12:11.438Z,3.35
2022-08-18T07:15:02.900Z,3.55
2022-08-18T07:17:51.953Z,3.50
2022-08-18T07:20:45.745Z,3.08
2022-08-18T07:23:38.357Z,4.00
2022-08-18T07:26:27.561Z,3.15
2022-08-18T07:29:17.362Z,4.00
2022-08-18T07:32:21.338Z,5.35
2022-08-18T07:35:13.027Z,6.53
2022-08-18T07:38:18.630Z,5.28
2022-08-18T07:41:21.069Z,4.55
2022-08-18T07:44:18.896Z,4.65
2022-08-18T07:47:16.668Z,5.40
2022-08-18T07:50:31.591Z,5.32
2022-08-18T07:53:29.079Z,4.97
2022-08-18T07:56:25.977Z,4.18
2022-08-18T07:59:20.747Z,3.60
2022-08-18T08:02:23.466Z,3.38
2022-08-18T08:05:23.650Z,3.55
2022-08-18T08:08:25.339Z,4.60
2022-08-18T08:11:34.012Z,4.93
2022-08-18T08:14:43.203Z,4.72
2022-08-18T08:17:42.877Z,5.65
2022-08-18T08:20:36.372Z,4.88
2022-08-18T08:23:33.101Z,5.35
2022-08-18T08:26:38.178Z,6.13
2022-08-18T08:29:37.803Z,4.68
2022-08-18T08:32:34.540Z,6.03
2022-08-18T08:35:49.971Z,5.78
2022-08-18T08:38:45.894Z,4.07
2022-08-18T08:41:39.675Z,6.10
2022-08-18T08:44:58.137Z,6.07
2022-08-18T08:48:06.619Z,4.97
2022-08-18T08:51:02.530Z,6.18
2022-08-18T08:53:56.879Z,6.05
2022-08-18T08:56:48.835Z,4.13
2022-08-18T08:59:39.353Z,6.78
2022-08-18T09:02:57.121Z,6.60
2022-08-18T09:05:56.887Z,8.30
2022-08-18T09:08:56.523Z,7.18
2022-08-18T09:11:55.613Z,8.60
2022-08-18T09:15:10.593Z,9.82
2022-08-18T09:18:27.942Z,5.90
2022-08-18T09:21:31.347Z,3.50
2022-08-18T09:24:27.586Z,2.13
2022-08-18T09:27:31.190Z,2.13
2022-08-18T09:30:47.490Z,2.42
2022-08-18T09:34:07.185Z,1.40
2022-08-18T09:37:14.212Z,1.17
2022-08-18T09:40:51.336Z,1.27
2022-08-18T09:43:41.331Z,0.68
2022-08-18T09:46:55.863Z,0.70
2022-08-18T09:53:32.481Z,0.50
2022-08-18T09:57:00.630Z,0.60
2022-08-18T10:00:24.376Z,1.02
2022-08-18T10:03:31.149Z,0.30
2022-08-18T10:06:26.933Z,0.40
2022-08-18T10:09:36.823Z,0.40
2022-08-18T10:12:46.000Z,0.35
2022-08-18T10:15:49.561Z,0.10
2022-08-18T10:18:55.747Z,0.20
2022-08-18T10:22:07.097Z,0.10
2022-08-18T10:25:14.178Z,0.35
2022-08-18T10:28:11.812Z,0.30
2022-08-18T10:34:40.740Z,0.50
2022-08-18T10:37:46.255Z,0.52
2022-08-18T10:40:40.381Z,0.60
2022-08-18T10:43:45.667Z,0.40
2022-08-18T10:46:46.617Z,0.63
2022-08-18T10:49:38.201Z,0.60
2022-08-18T10:53:32.943Z,0.45
2022-08-18T10:56:30.901Z,0.50
2022-08-18T10:59:43.997Z,0.95
2022-08-18T11:03:42.721Z,0.98
2022-08-18T11:09:28.178Z,0.63
2022-08-18T11:12:43.981Z,0.30
2022-08-18T11:15:42.716Z,0.30
2022-08-18T11:21:51.600Z,0.10
2022-08-18T11:24:46.637Z,0.35
2022-08-18T11:27:37.313Z,0.30
2022-08-18T11:30:48.812Z,0.20
2022-08-18T11:33:42.367Z,0.30
2022-08-18T11:36:32.947Z,0.30
2022-08-18T11:39:35.924Z,0.20
2022-08-18T11:42:33.792Z,0.10
2022-08-18T11:45:30.663Z,0.15
2022-08-18T11:48:46.231Z,0.20
2022-08-18T11:51:56.233Z,0.20
2022-08-18T11:54:50.570Z,0.30
2022-08-18T11:57:51.995Z,0.40
2022-08-18T12:01:01.559Z,0.40
2022-08-18T12:03:52.355Z,0.32
2022-08-18T12:10:18.261Z,0.73
2022-08-18T12:13:07.933Z,0.40
2022-08-18T12:16:14.711Z,1.35
2022-08-18T12:19:05.393Z,0.73
2022-08-18T12:22:03.181Z,0.70
2022-08-18T12:25:01.011Z,0.90
2022-08-18T12:27:50.394Z,1.30
2022-08-18T12:30:42.252Z,1.50
2022-08-18T12:36:43.615Z,1.27
2022-08-18T12:39:33.788Z,1.27
2022-08-18T12:42:24.198Z,1.40
2022-08-18T12:45:13.929Z,1.65
2022-08-18T12:48:04.037Z,1.20
2022-08-18T12:50:59.638Z,1.38
2022-08-18T12:53:59.415Z,1.30
2022-08-18T12:56:50.962Z,1.73
2022-08-18T12:59:40.302Z,1.25
2022-08-18T13:02:31.013Z,1.17
2022-08-18T13:05:27.375Z,1.20
2022-08-18T13:08:27.535Z,1.02
2022-08-18T13:11:23.841Z,0.85
2022-08-18T13:14:15.202Z,0.90
2022-08-18T13:17:05.404Z,0.75
2022-08-18T13:19:58.582Z,0.82
2022-08-18T13:22:50.224Z,0.88
2022-08-18T13:25:42.228Z,0.90
2022-08-18T13:28:57.953Z,0.80
2022-08-18T13:31:55.494Z,0.70
2022-08-18T13:34:49.954Z,0.70
2022-08-18T13:37:39.408Z,1.00
2022-08-18T13:40:29.429Z,0.80
2022-08-18T13:43:23.468Z,0.90
2022-08-18T13:46:14.563Z,0.80
2022-08-18T13:49:04.749Z,0.90
2022-08-18T13:52:00.873Z,0.60
2022-08-18T13:54:53.325Z,0.60
2022-08-18T13:57:49.828Z,0.68
2022-08-18T14:00:41.223Z,0.82
2022-08-18T14:03:46.902Z,0.80
2022-08-18T14:06:36.794Z,0.63
2022-08-18T14:09:38.053Z,0.63
2022-08-18T14:12:32.716Z,0.90
2022-08-18T14:15:23.351Z,0.75
2022-08-18T14:18:16.360Z,1.00
2022-08-18T14:21:23.401Z,1.05
2022-08-18T14:24:30.333Z,0.70
2022-08-18T14:27:18.865Z,0.98
2022-08-18T14:30:11.497Z,1.00
2022-08-18T14:33:03.561Z,0.80
2022-08-18T14:36:06.085Z,0.60
2022-08-18T14:38:58.302Z,0.90
2022-08-18T14:41:54.604Z,0.98
2022-08-18T14:44:45.971Z,1.20
2022-08-18T14:47:37.214Z,1.00
2022-08-18T14:50:27.021Z,1.10
2022-08-18T14:53:20.597Z,1.02
2022-08-18T14:56:12.544Z,1.25
2022-08-18T14:59:01.849Z,0.98
2022-08-18T15:01:51.498Z,0.70
2022-08-18T15:04:53.043Z,0.80
2022-08-18T15:07:47.055Z,1.25
2022-08-18T15:10:42.978Z,1.30
2022-08-18T15:13:32.279Z,0.70
2022-08-18T15:16:31.503Z,1.23
2022-08-18T15:19:57.538Z,0.68
2022-08-18T15:22:49.562Z,0.75
2022-08-18T15:25:45.017Z,1.00
2022-08-18T15:28:34.475Z,1.52
2022-08-18T15:34:32.876Z,0.90
2022-08-18T15:37:36.969Z,0.93
2022-08-18T18:15:45.508Z,1.40
2022-08-18T18:18:42.082Z,1.30
2022-08-18T18:22:00.383Z,2.13
2022-08-18T18:24:51.813Z,1.55
2022-08-18T18:27:43.175Z,1.60
2022-08-18T18:30:32.934Z,1.50
2022-08-18T18:33:23.064Z,2.20
2022-08-18T18:36:14.235Z,1.60
2022-08-18T18:39:10.636Z,1.88
2022-08-18T18:42:15.177Z,1.58
2022-08-18T18:45:10.010Z,1.50
2022-08-18T18:48:07.128Z,1.42
2022-08-18T18:51:10.838Z,1.60
2022-08-18T18:54:14.157Z,1.80
2022-08-18T18:57:12.458Z,1.55
2022-08-18T19:00:18.172Z,1.50
2022-08-18T19:03:17.209Z,2.33
2022-08-18T19:06:20.788Z,2.25
2022-08-18T19:09:19.927Z,1.60
2022-08-18T19:12:20.178Z,1.90
2022-08-18T19:15:15.127Z,2.85
2022-08-18T19:18:06.728Z,2.05
2022-08-18T19:22:01.969Z,2.17
2022-08-18T19:24:18.714Z,1.70
2022-08-18T19:27:16.980Z,1.50
2022-08-18T19:30:16.295Z,1.52
2022-08-18T19:33:07.690Z,1.60
2022-08-18T19:36:04.047Z,1.83
2022-08-18T19:39:05.777Z,1.80
2022-08-18T19:42:00.318Z,2.30
2022-08-18T19:45:15.914Z,2.35
2022-08-18T19:48:15.160Z,2.13
2022-08-18T19:51:12.702Z,2.03
2022-08-18T19:54:22.502Z,2.45
2022-08-18T19:57:29.612Z,2.30
2022-08-18T20:00:32.179Z,2.28
2022-08-18T20:03:48.055Z,3.00
2022-08-18T20:06:56.126Z,1.95
2022-08-18T20:10:01.544Z,3.00
2022-08-18T20:13:13.582Z,2.08
2022-08-18T20:16:28.644Z,2.65
2022-08-18T20:20:07.473Z,2.40
2022-08-18T20:22:58.646Z,2.95
2022-08-18T20:25:48.573Z,2.75
2022-08-18T20:28:42.030Z,4.15
2022-08-18T20:31:52.075Z,3.67
2022-08-18T20:34:49.307Z,3.85
2022-08-18T20:37:38.645Z,3.60
2022-08-18T20:40:44.987Z,2.55
2022-08-18T20:43:36.041Z,3.42
2022-08-18T20:46:41.390Z,4.03
2022-08-18T20:49:50.186Z,3.35
2022-08-18T20:52:43.214Z,3.45
2022-08-18T20:55:44.429Z,3.67
2022-08-18T20:58:39.474Z,2.92
2022-08-18T21:01:30.975Z,3.28
2022-08-18T21:04:33.709Z,4.60
2022-08-18T21:07:36.330Z,4.25
2022-08-18T21:10:29.824Z,3.92
2022-08-18T21:13:36.970Z,3.40
2022-08-18T21:16:39.280Z,6.60
2022-08-18T21:19:30.222Z,5.25
2022-08-18T21:22:20.899Z,5.55
2022-08-18T21:25:13.485Z,4.88
2022-08-18T21:28:04.129Z,6.72
2022-08-18T21:31:42.231Z,5.20
2022-08-18T21:34:11.681Z,5.28
2022-08-18T21:37:08.104Z,4.93
2022-08-18T21:40:00.022Z,4.05
2022-08-18T21:42:49.268Z,5.35
2022-08-18T21:45:47.648Z,6.85
2022-08-18T21:48:42.285Z,5.38
2022-08-18T21:51:44.271Z,4.80
2022-08-18T21:54:35.847Z,5.90
2022-08-18T21:57:30.113Z,6.93
2022-08-18T22:00:26.021Z,5.68
2022-08-18T22:03:21.409Z,4.68
2022-08-18T22:06:18.816Z,6.80
2022-08-18T22:09:36.477Z,6.75
2022-08-18T22:12:48.536Z,6.85
2022-08-18T22:15:42.739Z,7.53
2022-08-18T22:18:38.774Z,9.05
2022-08-18T22:21:38.398Z,7.88
2022-08-18T22:24:35.789Z,6.60
2022-08-18T22:27:27.167Z,6.35
2022-08-18T22:30:16.273Z,7.07
2022-08-18T22:33:05.098Z,7.43
2022-08-18T22:35:57.926Z,6.65
2022-08-18T22:38:47.571Z,6.38
2022-08-18T22:41:38.538Z,8.32
2022-08-18T22:44:28.547Z,9.68
2022-08-18T22:47:18.210Z,11.05
2022-08-18T22:50:08.627Z,11.13
2022-08-18T22:52:57.518Z,8.65
2022-08-18T22:55:46.534Z,9.07
2022-08-18T22:58:37.244Z,7.90
2022-08-18T23:01:30.217Z,7.55
2022-08-18T23:04:21.887Z,12.15
2022-08-18T23:07:11.404Z,9.60
2022-08-18T23:10:01.062Z,14.57
2022-08-18T23:12:51.087Z,14.45
2022-08-18T23:15:49.156Z,15.45
2022-08-18T23:18:38.640Z,11.00
2022-08-18T23:21:33.770Z,11.23
2022-08-18T23:24:25.126Z,13.25
2022-08-18T23:27:14.190Z,15.23
2022-08-18T23:30:03.034Z,15.10
2022-08-18T23:32:55.260Z,14.30
2022-08-18T23:35:45.479Z,13.35
2022-08-18T23:38:38.217Z,17.02
2022-08-18T23:41:27.736Z,18.23
2022-08-18T23:44:16.833Z,16.70
2022-08-18T23:47:06.415Z,15.98
2022-08-18T23:49:57.861Z,15.48
2022-08-18T23:52:48.030Z,13.90
2022-08-18T23:55:38.807Z,13.43
2022-08-18T23:58:27.879Z,16.85
